Andrews Air Force Base, Maryland
Current Conditions -  °F | °C
As of 7:58 AM on Thursday 30 Oct 2014 (Local Time) from KADW Reporting Station
Few Clouds Few Clouds  
Wind Chill: 44°   Ceiling: Unl
Heat Index: 47°   Visibility: 10mi
Dew Point: 40°   Wind: 8mph
Humidity: 76%   Direction: 310°NW
Pressure: 30.03"   Gusts: NA
Location:  38.8062°N, 76.8756°W
Report Text: KADW 301158Z AUTO 31007KT 10SM FEW070 09/05 A3003 RMK AO2 SLP176 T00860045 10089 20045 52012 $
Loading
Personal Weather Stations






























Interactive Weather Map
Tropical Storm Tracking
New forecast layout! Learn more

10-Day Weather Forecast

Advertisements
Track Severe Weather on mobile